New Bridgeville, Pennsylvania
Current Conditions -  °F | °C
As of 6:53 PM on Saturday 25 Oct 2014 (Local Time) from KTHV Reporting Station
Clear Clear  
Wind Chill: 64°   Ceiling: Unl
Heat Index: 64°   Visibility: 10mi
Dew Point: 44°   Wind: 7mph
Humidity: 48%   Direction: 210°SSW
Pressure: 29.69"   Gusts: NA
Location:  39.8974°N, 76.608°W
Report Text: KTHV 252253Z AUTO 21006KT 10SM CLR 18/07 A2969 RMK AO2 SLP057 T01780067
Loading
Personal Weather Stations






























Interactive Weather Map
Tropical Storm Tracking
New forecast layout! Learn more

10-Day Weather Forecast

Advertisements
Track Severe Weather on mobile